Time;durP1;ratioP1;P1;durP2;ratioP2;P2;SDS_P1;SDS_P2;PMS_P1;PMS_P2;Temp;Humidity;BMP_temperature;BMP_pressure;BME280_temperature;BME280_humidity;BME280_pressure;Samples;Min_cycle;Max_cycle;Signal;HPM_P1;HPM_P2
2022/05/08 00:02:23;;;;;;;12.35;6.10;;;;;;;18.77;51.62;99109.63;4486885;31;20096;-81
2022/05/08 00:04:52;;;;;;;11.80;5.57;;;;;;;18.76;51.76;99100.78;4486749;31;20085;-80
2022/05/08 00:07:21;;;;;;;10.43;5.62;;;;;;;18.75;51.65;99098.25;4486698;31;20114;-81
2022/05/08 00:09:47;;;;;;;11.90;6.12;;;;;;;18.65;51.97;99096.34;4472439;32;20482;-81
2022/05/08 00:12:14;;;;;;;11.85;6.10;;;;;;;18.66;51.88;99098.03;4485577;32;20407;-81
2022/05/08 00:14:40;;;;;;;11.52;5.90;;;;;;;18.23;53.14;99087.37;4486690;31;20095;-80
2022/05/08 00:17:06;;;;;;;10.77;5.53;;;;;;;18.42;52.65;99090.22;4485422;32;20104;-80
2022/05/08 00:19:31;;;;;;;11.15;5.45;;;;;;;18.62;51.75;99087.72;4486555;31;20076;-81
2022/05/08 00:21:57;;;;;;;12.48;5.55;;;;;;;18.63;51.81;99076.94;4485515;32;20127;-80
2022/05/08 00:24:22;;;;;;;12.55;5.00;;;;;;;18.77;51.50;99077.59;4485378;32;20103;-80
2022/05/08 00:26:47;;;;;;;10.45;5.10;;;;;;;18.72;51.58;99077.16;4486461;32;20123;-81
2022/05/08 00:29:15;;;;;;;10.70;5.22;;;;;;;18.40;52.25;99086.84;4485325;32;20101;-81
2022/05/08 00:31:41;;;;;;;18.17;5.30;;;;;;;18.43;52.10;99075.94;4486526;31;20104;-81
2022/05/08 00:34:06;;;;;;;11.90;5.45;;;;;;;18.46;51.99;99080.16;4485248;32;20107;-80
2022/05/08 00:36:32;;;;;;;12.15;5.35;;;;;;;18.42;52.13;99076.91;4486286;32;20092;-81
2022/05/08 00:38:57;;;;;;;10.82;5.05;;;;;;;18.44;52.18;99072.28;4486267;31;20393;-81
2022/05/08 00:41:23;;;;;;;11.38;4.95;;;;;;;18.45;52.18;99076.66;4486351;32;20337;-81
2022/05/08 00:43:48;;;;;;;10.60;4.93;;;;;;;18.48;51.96;99072.88;4486330;32;20103;-81
2022/05/08 00:46:16;;;;;;;10.45;5.05;;;;;;;18.64;51.56;99069.81;4486312;31;20116;-81
2022/05/08 00:48:42;;;;;;;11.00;5.25;;;;;;;18.78;51.16;99061.47;4485083;32;20087;-81
2022/05/08 00:51:12;;;;;;;10.60;5.12;;;;;;;18.81;51.00;99068.41;4486183;31;20105;-81
2022/05/08 00:53:43;;;;;;;11.05;5.03;;;;;;;18.65;51.27;99064.31;4485021;32;20428;-81
2022/05/08 00:56:13;;;;;;;10.32;5.03;;;;;;;18.73;51.19;99060.16;4484884;32;20092;-81
2022/05/08 00:58:39;;;;;;;11.05;5.37;;;;;;;18.83;50.82;99061.97;4486055;31;20108;-81
2022/05/08 01:01:06;;;;;;;10.63;5.22;;;;;;;18.78;50.88;99057.97;4486101;31;20084;-81
2022/05/08 01:03:32;;;;;;;10.60;4.80;;;;;;;18.69;51.06;99064.06;4486002;31;20099;-80
2022/05/08 01:05:57;;;;;;;10.10;5.22;;;;;;;18.53;51.39;99056.50;4471699;32;20172;-80
2022/05/08 01:08:25;;;;;;;12.50;5.40;;;;;;;18.32;52.12;99059.12;4484627;32;20364;-80
2022/05/08 01:10:53;;;;;;;11.60;4.75;;;;;;;18.46;51.64;99050.81;4484889;32;20099;-81
2022/05/08 01:13:19;;;;;;;10.63;4.80;;;;;;;18.55;51.41;99057.22;4484836;32;20140;-81
2022/05/08 01:15:46;;;;;;;10.05;4.68;;;;;;;18.54;51.47;99059.03;4484630;32;20104;-81
2022/05/08 01:18:13;;;;;;;10.48;4.53;;;;;;;18.68;50.98;99052.56;4484734;32;20114;-81
2022/05/08 01:20:42;;;;;;;12.27;5.30;;;;;;;18.49;51.17;99052.41;4485791;31;20159;-80
2022/05/08 01:23:09;;;;;;;10.18;4.93;;;;;;;18.64;50.99;99051.97;4484654;32;20085;-81
2022/05/08 01:25:36;;;;;;;10.03;4.60;;;;;;;18.47;51.31;99053.38;4485785;31;20153;-81
2022/05/08 01:28:04;;;;;;;11.23;4.82;;;;;;;18.70;50.77;99047.94;4484566;32;20668;-81
2022/05/08 01:30:31;;;;;;;11.20;5.00;;;;;;;18.53;51.23;99056.50;4485793;31;20129;-81
2022/05/08 01:32:58;;;;;;;12.70;5.53;;;;;;;18.75;50.70;99053.72;4484440;32;20538;-80
2022/05/08 01:35:24;;;;;;;10.55;5.00;;;;;;;18.75;50.56;99061.72;4484683;32;20375;-81
2022/05/08 01:37:49;;;;;;;10.93;5.05;;;;;;;18.73;50.46;99049.50;4485751;31;20088;-81
2022/05/08 01:40:17;;;;;;;10.57;5.25;;;;;;;18.66;50.97;99050.00;4487366;32;20076;-81
2022/05/08 01:42:43;;;;;;;10.25;5.00;;;;;;;18.66;50.78;99054.50;4486850;32;20133;-80
2022/05/08 01:45:09;;;;;;;10.65;4.85;;;;;;;18.72;50.66;99051.31;4487983;31;20471;-81
2022/05/08 01:50:19;;;;;;;12.10;5.05;;;;;;;18.44;51.11;99053.59;4487918;32;20132;-81
2022/05/08 01:52:45;;;;;;;10.65;4.72;;;;;;;18.33;51.19;99059.00;4486578;32;20081;-81
2022/05/08 01:55:10;;;;;;;10.43;4.93;;;;;;;18.59;50.46;99047.97;4487630;32;20146;-81
2022/05/08 01:57:35;;;;;;;11.80;5.10;;;;;;;18.63;50.27;99044.06;4486408;32;20165;-80
2022/05/08 02:00:01;;;;;;;10.10;4.87;;;;;;;18.69;50.56;99050.72;4487504;32;20072;-81
2022/05/08 02:02:26;;;;;;;11.20;5.00;;;;;;;18.71;50.85;99048.78;4487640;32;20438;-80
2022/05/08 02:04:51;;;;;;;10.88;5.15;;;;;;;18.70;50.90;99042.59;4487480;32;20088;-81
2022/05/08 02:07:17;;;;;;;11.77;5.05;;;;;;;18.66;50.82;99049.16;4486515;32;20092;-81
2022/05/08 02:09:44;;;;;;;9.35;4.60;;;;;;;18.53;50.98;99044.00;4487562;31;20108;-80
2022/05/08 02:12:10;;;;;;;9.45;4.90;;;;;;;18.63;50.54;99047.59;4487682;31;20466;-81
2022/05/08 02:14:35;;;;;;;10.55;4.35;;;;;;;18.64;50.51;99048.47;4486382;32;20123;-81
2022/05/08 02:17:01;;;;;;;10.88;4.72;;;;;;;18.66;50.47;99054.50;4487605;31;20084;-81
2022/05/08 02:19:26;;;;;;;10.30;4.87;;;;;;;18.66;50.48;99049.16;4487395;32;20072;-80
2022/05/08 02:21:51;;;;;;;9.68;4.40;;;;;;;18.68;50.44;99047.22;4487580;32;20129;-81
2022/05/08 02:24:17;;;;;;;11.25;4.90;;;;;;;18.43;50.71;99048.41;4486432;32;20133;-80
2022/05/08 02:26:42;;;;;;;10.15;4.62;;;;;;;18.48;50.54;99043.53;4487416;32;20369;-81
2022/05/08 02:29:07;;;;;;;10.98;4.78;;;;;;;18.59;50.22;99045.31;4487504;32;20144;-81
2022/05/08 02:31:33;;;;;;;10.75;4.60;;;;;;;18.61;50.36;99044.19;4487360;32;20080;-80
2022/05/08 02:33:58;;;;;;;11.02;4.93;;;;;;;18.63;50.58;99046.75;4486135;32;20162;-80
2022/05/08 02:36:24;;;;;;;10.35;4.90;;;;;;;18.60;50.58;99050.53;4487182;32;20137;-80
2022/05/08 02:38:49;;;;;;;11.82;4.75;;;;;;;18.63;50.42;99054.75;4487675;32;20072;-81
2022/05/08 02:41:14;;;;;;;10.55;5.00;;;;;;;18.69;50.17;99050.72;4487674;31;20161;-81
2022/05/08 02:43:40;;;;;;;10.20;4.75;;;;;;;18.65;50.01;99042.13;4487598;32;20451;-80
2022/05/08 02:46:05;;;;;;;10.07;4.75;;;;;;;18.62;50.04;99056.59;4487534;32;20065;-81
2022/05/08 02:48:30;;;;;;;10.20;4.78;;;;;;;18.52;50.22;99054.78;4487559;32;20080;-81
2022/05/08 02:50:56;;;;;;;10.60;5.00;;;;;;;18.63;49.91;99058.25;4486509;31;20555;-81
2022/05/08 02:53:21;;;;;;;9.82;4.72;;;;;;;18.57;50.06;99058.78;4487663;32;20096;-81
2022/05/08 02:58:34;;;;;;;9.63;4.70;;;;;;;18.50;49.98;99054.09;4486380;32;20107;-80
2022/05/08 03:01:01;;;;;;;10.68;5.00;;;;;;;18.16;51.03;99065.72;4487276;32;20098;-81
2022/05/08 03:03:27;;;;;;;9.32;4.47;;;;;;;18.34;50.46;99060.69;4485996;32;20092;-81
2022/05/08 03:05:52;;;;;;;10.70;5.12;;;;;;;18.46;50.10;99058.81;4487388;31;20131;-81
2022/05/08 03:08:18;;;;;;;10.93;5.28;;;;;;;18.41;50.27;99064.53;4487278;31;20496;-81
2022/05/08 03:13:31;;;;;;;10.07;4.60;;;;;;;18.35;50.37;99064.19;4486307;32;20111;-81
2022/05/08 03:15:57;;;;;;;11.40;4.50;;;;;;;18.50;50.01;99068.25;4486043;32;20096;-81
2022/05/08 03:18:22;;;;;;;11.77;4.37;;;;;;;18.53;49.69;99065.34;4487290;32;20077;-81
2022/05/08 03:20:47;;;;;;;10.10;4.55;;;;;;;18.54;49.67;99066.19;4486971;32;20129;-81
2022/05/08 03:23:14;;;;;;;10.40;4.25;;;;;;;18.63;49.64;99076.09;4487209;32;20113;-80
2022/05/08 03:25:39;;;;;;;11.50;4.53;;;;;;;18.24;50.36;99075.75;4487252;31;20096;-81
2022/05/08 03:28:05;;;;;;;10.30;4.50;;;;;;;18.24;50.18;99073.09;4485995;32;20458;-81
2022/05/08 03:30:30;;;;;;;9.88;4.62;;;;;;;18.23;50.09;99071.37;4487313;31;20426;-81
2022/05/08 03:32:56;;;;;;;9.57;4.75;;;;;;;18.45;49.52;99073.97;4487274;31;20088;-81
2022/05/08 03:35:22;;;;;;;10.27;4.72;;;;;;;18.42;49.73;99068.06;4487313;31;20080;-80
2022/05/08 03:37:47;;;;;;;10.18;4.60;;;;;;;18.51;49.77;99074.47;4472785;32;20076;-81
2022/05/08 03:40:12;;;;;;;12.25;4.32;;;;;;;18.60;49.54;99069.22;4487159;31;20099;-81
2022/05/08 03:42:38;;;;;;;10.90;4.55;;;;;;;18.53;49.38;99077.84;4487274;32;20132;-81
2022/05/08 03:45:03;;;;;;;9.85;4.50;;;;;;;18.62;49.09;99075.25;4485801;32;20097;-80
2022/05/08 03:47:29;;;;;;;9.73;4.72;;;;;;;18.70;49.09;99079.09;4486981;31;20436;-80
2022/05/08 03:49:54;;;;;;;10.52;4.90;;;;;;;18.81;49.22;99074.59;4486892;32;20080;-80
2022/05/08 03:52:19;;;;;;;10.90;4.40;;;;;;;18.90;49.17;99080.13;4486930;32;20081;-81
2022/05/08 03:54:45;;;;;;;9.35;4.70;;;;;;;18.95;48.42;99085.91;4486926;32;20107;-81
2022/05/08 03:57:10;;;;;;;9.38;4.37;;;;;;;18.97;48.32;99090.16;4486910;31;20442;-81
2022/05/08 03:59:36;;;;;;;10.90;4.78;;;;;;;18.85;48.51;99092.06;4486734;31;20131;-81
2022/05/08 04:02:01;;;;;;;9.48;4.45;;;;;;;19.02;48.29;99095.94;4485264;32;20122;-81
2022/05/08 04:04:27;;;;;;;9.50;4.20;;;;;;;19.15;48.21;99094.91;4486808;32;20333;-80
2022/05/08 04:06:52;;;;;;;11.70;4.70;;;;;;;19.24;48.21;99099.47;4485483;32;20100;-81
2022/05/08 04:09:18;;;;;;;10.65;4.95;;;;;;;19.33;48.14;99104.00;4485593;32;20425;-81
2022/05/08 04:11:43;;;;;;;12.80;4.70;;;;;;;19.42;48.21;99103.22;4486724;32;20386;-81
2022/05/08 04:14:08;;;;;;;10.45;4.95;;;;;;;19.32;47.80;99107.69;4486747;31;20080;-81
2022/05/08 04:16:35;;;;;;;10.90;4.78;;;;;;;19.50;47.64;99105.25;4486822;32;20376;-81
2022/05/08 04:19:00;;;;;;;9.88;4.50;;;;;;;19.57;47.47;99106.41;4486581;31;20188;-81
2022/05/08 04:21:26;;;;;;;11.40;4.93;;;;;;;19.68;47.02;99104.63;4486595;31;20081;-81
2022/05/08 04:26:35;;;;;;;9.85;4.47;;;;;;;19.89;47.05;99115.28;4485585;32;20102;-81
2022/05/08 04:29:01;;;;;;;10.65;4.55;;;;;;;20.02;47.11;99113.22;4486641;32;20075;-81
2022/05/08 04:31:27;;;;;;;10.80;4.37;;;;;;;20.16;46.98;99106.66;4485361;32;20334;-81
2022/05/08 04:33:52;;;;;;;8.90;4.28;;;;;;;20.34;46.74;99110.34;4486565;31;20088;-81
2022/05/08 04:36:18;;;;;;;9.43;4.28;;;;;;;20.48;46.04;99101.06;4486161;31;20089;-81
2022/05/08 04:38:44;;;;;;;10.07;4.45;;;;;;;20.38;45.38;99109.09;4486400;32;20106;-81
2022/05/08 04:41:10;;;;;;;9.68;4.35;;;;;;;20.69;45.25;99108.19;4485209;32;20096;-81
2022/05/08 04:43:35;;;;;;;9.75;4.43;;;;;;;20.83;43.42;99104.22;4485193;32;20617;-81
2022/05/08 04:46:01;;;;;;;8.50;3.92;;;;;;;20.93;43.30;99105.06;4486100;32;20344;-81
2022/05/08 04:48:26;;;;;;;8.82;3.90;;;;;;;20.99;43.10;99107.16;4486264;32;20068;-81
2022/05/08 04:50:51;;;;;;;8.65;4.50;;;;;;;20.85;43.28;99111.13;4485368;32;20101;-81
2022/05/08 04:53:17;;;;;;;9.35;4.55;;;;;;;21.12;43.03;99110.41;4486351;31;20073;-80
2022/05/08 04:55:42;;;;;;;9.68;4.40;;;;;;;21.20;43.29;99109.69;4484953;32;20088;-81
2022/05/08 04:58:08;;;;;;;10.05;4.37;;;;;;;21.30;43.25;99112.34;4485976;32;20084;-81
2022/05/08 05:00:34;;;;;;;9.50;4.50;;;;;;;21.31;42.74;99116.72;4486015;32;20085;-81
2022/05/08 05:03:00;;;;;;;9.65;4.43;;;;;;;21.29;42.57;99110.66;4486143;31;20081;-81
2022/05/08 05:05:26;;;;;;;9.65;4.22;;;;;;;21.40;42.86;99113.16;4486046;31;20089;-81
2022/05/08 05:07:51;;;;;;;8.80;4.10;;;;;;;21.47;42.01;99124.19;4484785;32;20463;-81
2022/05/08 05:10:17;;;;;;;9.52;4.30;;;;;;;21.56;42.67;99123.31;4484773;32;20145;-81
2022/05/08 05:12:42;;;;;;;9.95;4.47;;;;;;;21.63;43.67;99127.09;4471630;32;20356;-81
2022/05/08 05:15:08;;;;;;;8.57;3.95;;;;;;;21.76;43.52;99134.81;4486110;32;20084;-81
2022/05/08 05:17:34;;;;;;;9.27;4.30;;;;;;;21.85;42.95;99138.47;4488056;31;20106;-81
2022/05/08 05:20:00;;;;;;;10.40;4.90;;;;;;;21.84;42.75;99131.41;4486835;32;20132;-81
2022/05/08 05:22:25;;;;;;;9.10;4.40;;;;;;;21.86;41.93;99145.50;4486837;32;20443;-81
2022/05/08 05:24:51;;;;;;;10.48;4.50;;;;;;;22.03;41.74;99138.53;4488077;32;20200;-81
2022/05/08 05:27:17;;;;;;;10.90;4.93;;;;;;;22.06;42.10;99140.88;4486832;32;20080;-81
2022/05/08 05:29:42;;;;;;;9.85;4.60;;;;;;;22.05;42.27;99147.25;4488240;31;20455;-81
2022/05/08 05:32:08;;;;;;;9.60;4.53;;;;;;;22.10;42.00;99153.03;4487058;32;20137;-81
2022/05/08 05:34:33;;;;;;;10.95;5.00;;;;;;;22.11;41.60;99138.63;4488380;31;20464;-81
2022/05/08 05:36:59;;;;;;;10.27;5.05;;;;;;;22.16;41.98;99142.53;4488133;31;20064;-81
2022/05/08 05:39:24;;;;;;;9.93;4.80;;;;;;;22.28;41.79;99147.75;4486769;32;20131;-81
2022/05/08 05:41:50;;;;;;;11.18;5.00;;;;;;;22.29;41.76;99146.72;4488230;31;20100;-81
2022/05/08 05:44:16;;;;;;;10.30;4.72;;;;;;;22.42;41.19;99149.91;4488265;31;20092;-81
2022/05/08 05:49:30;;;;;;;10.43;4.68;;;;;;;22.47;41.47;99150.31;4487913;32;20763;-81
2022/05/08 05:51:56;;;;;;;10.15;4.80;;;;;;;22.68;40.50;99155.41;4487891;31;20107;-81
2022/05/08 05:54:22;;;;;;;9.77;4.65;;;;;;;22.77;40.34;99154.50;4486681;32;20421;-81
2022/05/08 05:56:48;;;;;;;10.80;5.05;;;;;;;22.77;40.77;99148.25;4487706;32;20076;-81
2022/05/08 05:59:14;;;;;;;11.93;5.50;;;;;;;22.84;39.85;99149.34;4486609;32;20131;-81
2022/05/08 06:01:39;;;;;;;11.68;4.93;;;;;;;22.92;39.58;99151.25;4487821;31;20100;-81
2022/05/08 06:04:05;;;;;;;10.82;5.20;;;;;;;23.05;39.46;99149.06;4487761;32;20150;-81
2022/05/08 06:06:30;;;;;;;11.02;5.35;;;;;;;23.01;38.98;99142.28;4487582;32;20116;-81
2022/05/08 06:08:55;;;;;;;9.52;5.00;;;;;;;23.02;38.69;99143.94;4487633;31;20375;-81
2022/05/08 06:11:21;;;;;;;10.68;5.40;;;;;;;23.11;39.03;99144.91;4487780;32;20428;-81
2022/05/08 06:13:46;;;;;;;11.10;5.05;;;;;;;23.04;39.51;99144.66;4487658;32;20116;-81
2022/05/08 06:16:12;;;;;;;12.55;4.95;;;;;;;23.23;39.28;99142.81;4487604;32;20076;-81
2022/05/08 06:18:37;;;;;;;10.88;5.45;;;;;;;23.33;39.06;99136.34;4487502;32;20081;-81
2022/05/08 06:21:03;;;;;;;10.48;5.28;;;;;;;23.29;39.59;99140.34;4487559;32;20103;-81
2022/05/08 06:23:28;;;;;;;11.38;5.07;;;;;;;23.48;39.59;99142.00;4486398;32;20092;-81
2022/05/08 06:25:54;;;;;;;11.05;4.85;;;;;;;23.58;38.71;99151.81;4487428;32;20081;-81
2022/05/08 06:28:19;;;;;;;12.05;5.60;;;;;;;23.78;38.67;99147.03;4487590;31;20124;-81
2022/05/08 06:30:48;;;;;;;9.77;5.10;;;;;;;23.84;38.85;99143.75;4487628;32;20344;-81
2022/05/08 06:33:14;;;;;;;12.00;5.37;;;;;;;23.87;38.20;99146.94;4487562;31;20111;-81
2022/05/08 06:35:39;;;;;;;11.18;5.65;;;;;;;23.89;37.63;99154.87;4473049;32;20115;-82
2022/05/08 06:38:06;;;;;;;12.75;5.75;;;;;;;24.10;37.43;99146.41;4486303;32;20124;-81
2022/05/08 06:40:32;;;;;;;11.93;5.82;;;;;;;24.17;36.87;99149.28;4486236;32;20451;-81
2022/05/08 06:42:57;;;;;;;11.77;5.60;;;;;;;24.22;37.30;99152.31;4486216;32;20075;-81
2022/05/08 06:45:24;;;;;;;11.12;5.90;;;;;;;24.37;36.70;99150.69;4487412;31;20107;-81
2022/05/08 06:47:50;;;;;;;13.93;6.03;;;;;;;24.41;36.17;99157.44;4487410;31;20429;-81
2022/05/08 06:50:18;;;;;;;11.73;5.62;;;;;;;24.37;35.92;99153.41;4486405;32;20092;-81
2022/05/08 06:52:43;;;;;;;11.80;5.62;;;;;;;24.55;35.60;99153.34;4487358;31;20093;-81
2022/05/08 06:55:09;;;;;;;10.73;5.62;;;;;;;24.73;35.08;99150.50;4487596;32;20064;-81
2022/05/08 06:57:34;;;;;;;11.38;5.70;;;;;;;24.71;36.27;99150.66;4473069;32;20127;-81
2022/05/08 07:02:45;;;;;;;11.63;5.62;;;;;;;25.01;34.63;99147.47;4486408;32;20560;-81
2022/05/08 07:05:11;;;;;;;11.82;5.68;;;;;;;24.98;34.42;99150.53;4487395;31;20148;-81
2022/05/08 07:07:36;;;;;;;10.57;5.60;;;;;;;25.16;34.07;99155.75;4486120;32;20367;-81
2022/05/08 07:10:03;;;;;;;11.45;5.60;;;;;;;25.27;33.31;99158.16;4487120;32;20088;-81
2022/05/08 07:12:28;;;;;;;10.82;5.82;;;;;;;24.97;34.69;99159.62;4486017;32;20072;-81
2022/05/08 07:14:54;;;;;;;11.77;6.03;;;;;;;25.10;34.25;99150.00;4487237;31;20118;-81
2022/05/08 07:17:21;;;;;;;11.75;6.57;;;;;;;25.27;33.61;99160.84;4486107;32;20499;-81
2022/05/08 07:19:50;;;;;;;11.65;6.32;;;;;;;25.18;34.22;99156.44;4487213;31;20488;-81
2022/05/08 07:22:16;;;;;;;11.50;6.30;;;;;;;25.33;33.90;99154.78;4487234;31;20432;-81
2022/05/08 07:24:41;;;;;;;12.45;6.18;;;;;;;25.37;33.69;99153.41;4487222;31;20470;-81
2022/05/08 07:27:10;;;;;;;12.90;6.45;;;;;;;25.45;33.66;99145.31;4487175;32;20085;-81
2022/05/08 07:29:36;;;;;;;14.90;6.40;;;;;;;25.56;33.94;99154.06;4487155;31;20180;-81
2022/05/08 07:32:02;;;;;;;11.52;5.80;;;;;;;25.65;33.94;99148.50;4487480;31;20111;-81
2022/05/08 07:37:11;;;;;;;11.48;6.43;;;;;;;25.90;33.53;99159.19;4486212;32;20147;-81
2022/05/08 07:39:36;;;;;;;12.70;7.45;;;;;;;25.95;34.04;99154.16;4486959;32;20428;-81
2022/05/08 07:42:02;;;;;;;12.48;6.03;;;;;;;25.81;33.32;99157.56;4487178;32;20192;-81
2022/05/08 07:44:28;;;;;;;11.20;6.22;;;;;;;25.89;34.10;99158.38;4487123;31;20128;-81
2022/05/08 07:46:53;;;;;;;12.07;6.32;;;;;;;25.87;34.03;99160.41;4486739;32;20111;-81
2022/05/08 07:49:18;;;;;;;13.23;6.37;;;;;;;26.08;34.07;99157.16;4486783;32;20152;-81
2022/05/08 07:51:44;;;;;;;11.35;6.32;;;;;;;26.06;33.57;99152.97;4486871;32;20371;-81
2022/05/08 07:54:09;;;;;;;11.43;5.82;;;;;;;26.02;34.44;99157.00;4486944;32;20072;-81
2022/05/08 07:56:35;;;;;;;13.15;6.28;;;;;;;26.04;33.86;99155.84;4486944;32;20127;-81
2022/05/08 07:59:00;;;;;;;11.68;6.40;;;;;;;26.04;33.77;99153.13;4485601;32;20115;-81
2022/05/08 08:01:26;;;;;;;12.18;6.10;;;;;;;26.19;33.36;99160.47;4486986;31;20408;-81
2022/05/08 08:03:51;;;;;;;12.98;6.40;;;;;;;26.04;32.94;99168.50;4486849;31;20129;-81
2022/05/08 08:06:17;;;;;;;12.35;5.90;;;;;;;25.93;33.68;99161.59;4486759;31;20126;-81
2022/05/08 08:08:42;;;;;;;13.82;6.55;;;;;;;25.73;33.51;99160.25;4486751;31;20081;-81
2022/05/08 08:11:10;;;;;;;12.63;6.50;;;;;;;25.91;34.00;99160.94;4486662;31;20141;-81
2022/05/08 08:13:36;;;;;;;10.77;6.05;;;;;;;25.87;34.73;99160.41;4486810;31;20085;-81
2022/05/08 08:16:02;;;;;;;12.90;6.80;;;;;;;25.91;33.66;99163.63;4486775;31;20385;-81
2022/05/08 08:18:28;;;;;;;11.73;6.70;;;;;;;26.01;33.62;99164.25;4485498;32;20268;-81
2022/05/08 08:20:53;;;;;;;12.30;6.43;;;;;;;25.96;32.98;99172.06;4486623;32;20092;-81
2022/05/08 08:23:19;;;;;;;10.25;5.62;;;;;;;25.82;32.81;99172.72;4486601;32;20065;-81
2022/05/08 08:25:45;;;;;;;11.48;5.93;;;;;;;25.75;32.88;99163.63;4486618;32;20121;-81
2022/05/08 08:28:10;;;;;;;11.43;5.80;;;;;;;25.79;33.18;99170.37;4486629;31;20357;-81
2022/05/08 08:30:36;;;;;;;10.90;5.90;;;;;;;25.84;32.91;99168.84;4485408;32;20136;-81
2022/05/08 08:33:02;;;;;;;11.43;5.80;;;;;;;25.86;32.89;99171.38;4485557;32;20138;-81
2022/05/08 08:35:27;;;;;;;10.80;5.47;;;;;;;25.98;32.92;99178.13;4486706;31;20107;-81
2022/05/08 08:37:52;;;;;;;12.88;5.55;;;;;;;26.06;32.90;99171.88;4486353;32;20436;-81
2022/05/08 08:40:18;;;;;;;11.98;5.75;;;;;;;26.25;31.44;99171.44;4486455;31;20100;-81
2022/05/08 08:42:44;;;;;;;10.48;5.57;;;;;;;26.23;31.49;99175.31;4486683;31;20080;-81
2022/05/08 08:47:56;;;;;;;11.12;5.15;;;;;;;26.38;30.74;99175.44;4485329;32;20119;-81
2022/05/08 08:50:24;;;;;;;11.23;6.35;;;;;;;26.21;30.93;99172.81;4473515;32;20076;-81
2022/05/08 08:52:50;;;;;;;10.95;5.95;;;;;;;26.22;32.33;99177.19;4473959;32;20080;-81
2022/05/08 08:55:16;;;;;;;11.90;6.43;;;;;;;26.36;32.33;99181.00;4488207;31;20115;-81
2022/05/08 08:57:43;;;;;;;12.73;6.30;;;;;;;26.38;32.37;99184.38;4488229;31;20177;-81
2022/05/08 09:00:09;;;;;;;11.82;6.57;;;;;;;26.45;32.21;99179.94;4488133;31;20106;-81
2022/05/08 09:02:35;;;;;;;11.05;6.05;;;;;;;26.60;31.31;99184.66;4487077;32;20096;-81
2022/05/08 09:05:08;;;;;;;11.93;6.55;;;;;;;26.44;32.30;99181.00;4488150;31;20197;-81
2022/05/08 09:07:33;;;;;;;10.98;5.75;;;;;;;26.38;32.55;99178.97;4487103;32;20532;-81
2022/05/08 09:10:13;;;;;;;11.40;6.18;;;;;;;26.38;32.83;99176.25;4488195;32;20100;-81
2022/05/08 09:12:39;;;;;;;12.43;6.43;;;;;;;26.24;32.70;99180.56;4488280;32;20102;-81
2022/05/08 09:15:23;;;;;;;10.55;5.45;;;;;;;26.34;32.72;99180.34;4488079;32;20471;-81
2022/05/08 09:17:54;;;;;;;11.98;5.55;;;;;;;26.46;32.61;99173.53;4486959;32;20100;-81
2022/05/08 09:20:31;;;;;;;10.90;6.03;;;;;;;26.41;32.67;99175.94;4486912;32;20080;-81
2022/05/08 09:23:04;;;;;;;10.73;5.37;;;;;;;26.34;32.21;99182.22;4488095;31;20115;-81
2022/05/08 09:25:48;;;;;;;12.95;5.43;;;;;;;26.34;31.84;99174.94;4486798;32;20100;-81
2022/05/08 09:28:14;;;;;;;10.82;5.40;;;;;;;26.28;31.47;99176.47;4488056;32;20491;-81
2022/05/08 09:30:54;;;;;;;10.77;5.72;;;;;;;26.32;32.06;99176.97;4486912;32;20077;-81
2022/05/08 09:33:22;;;;;;;9.88;5.30;;;;;;;26.13;31.27;99177.41;4486873;32;20081;-81
2022/05/08 09:35:48;;;;;;;11.85;5.47;;;;;;;26.03;32.57;99178.44;4488001;31;20123;-81
2022/05/08 09:38:13;;;;;;;10.93;5.45;;;;;;;25.90;32.87;99180.78;4486637;32;20429;-81
2022/05/08 09:40:39;;;;;;;11.40;5.60;;;;;;;25.80;32.76;99172.06;4487880;32;20092;-81
2022/05/08 09:43:05;;;;;;;11.27;5.47;;;;;;;25.69;32.76;99182.22;4486703;32;20099;-81
2022/05/08 09:45:30;;;;;;;9.85;5.10;;;;;;;25.58;32.25;99170.94;4487961;31;20092;-81
2022/05/08 09:47:57;;;;;;;11.27;4.93;;;;;;;25.77;31.68;99173.25;4486715;32;20097;-81
2022/05/08 09:50:22;;;;;;;10.55;5.32;;;;;;;25.57;32.67;99170.06;4487895;31;20084;-82
2022/05/08 09:52:48;;;;;;;10.48;5.12;;;;;;;25.31;32.78;99168.41;4486656;32;20111;-81
2022/05/08 09:55:14;;;;;;;10.45;5.37;;;;;;;25.60;32.96;99160.81;4487804;31;20368;-81
2022/05/08 09:57:40;;;;;;;11.10;6.20;;;;;;;25.82;32.48;99161.94;4487891;31;20148;-81
2022/05/08 10:00:07;;;;;;;10.48;5.50;;;;;;;25.78;32.64;99166.00;4472935;32;20084;-81
2022/05/08 10:02:32;;;;;;;10.68;5.22;;;;;;;25.92;32.47;99159.91;4487811;31;20081;-81
2022/05/08 10:04:58;;;;;;;10.15;5.50;;;;;;;25.94;32.37;99159.75;4486459;32;20388;-81
2022/05/08 10:07:24;;;;;;;11.98;6.07;;;;;;;26.10;32.06;99157.00;4487766;31;20462;-81
2022/05/08 10:15:33;;;;;;;11.95;5.37;;;;;;;26.28;32.35;99159.44;4487856;32;20600;-81
2022/05/08 10:18:33;;;;;;;12.05;5.30;;;;;;;26.24;31.64;99155.41;4487817;31;20146;-81
2022/05/08 10:21:08;;;;;;;;;;;;;;;26.39;31.54;99145.56;4487892;32;20068;-81
2022/05/08 10:23:37;;;;;;;10.30;5.10;;;;;;;26.44;30.85;99145.88;4486474;32;19986;-81
2022/05/08 10:26:19;;;;;;;10.00;5.50;;;;;;;26.17;30.80;99140.91;4487590;31;20131;-81
2022/05/08 10:29:03;;;;;;;10.50;5.60;;;;;;;26.31;31.44;99142.91;4486259;32;20463;-81
2022/05/08 10:31:48;;;;;;;10.85;5.82;;;;;;;26.30;31.91;99141.19;4487472;32;20115;-81
2022/05/08 10:34:15;;;;;;;11.68;6.05;;;;;;;26.42;31.87;99145.19;4487554;31;20535;-81
2022/05/08 10:37:12;;;;;;;12.70;6.60;;;;;;;26.50;31.89;99138.88;4486162;32;20132;-81
2022/05/08 10:39:41;;;;;;;13.07;6.05;;;;;;;26.53;30.94;99137.72;4487393;31;20132;-81
2022/05/08 10:42:29;;;;;;;12.37;6.07;;;;;;;26.37;31.98;99139.47;4487333;31;20534;-81
2022/05/08 10:44:55;;;;;;;12.55;5.72;;;;;;;26.60;30.92;99141.44;4486983;31;20102;-80
2022/05/08 10:47:33;;;;;;;11.20;5.78;;;;;;;26.61;30.83;99132.28;4487441;31;20111;-80
2022/05/08 10:50:06;;;;;;;11.32;6.00;;;;;;;26.53;31.18;99137.72;4487649;31;20111;-81
2022/05/08 10:52:33;;;;;;;10.70;5.45;;;;;;;26.68;30.46;99130.56;4487576;31;20100;-81
2022/05/08 10:55:04;;;;;;;11.63;5.28;;;;;;;26.77;30.35;99131.31;4487463;31;20140;-80
2022/05/08 10:57:36;;;;;;;9.77;5.35;;;;;;;26.72;30.95;99131.03;4487402;31;20100;-80
2022/05/08 11:00:11;;;;;;;13.27;6.03;;;;;;;26.78;30.28;99136.56;4473044;32;20122;-80
2022/05/08 11:02:56;;;;;;;12.35;5.55;;;;;;;26.87;29.91;99131.94;4486294;32;20080;-80
2022/05/08 11:05:22;;;;;;;11.00;5.90;;;;;;;27.02;30.06;99134.69;4486101;32;20168;-80
2022/05/08 11:07:58;;;;;;;12.55;5.35;;;;;;;27.09;30.04;99124.00;4486140;32;20484;-81
2022/05/08 11:10:28;;;;;;;11.07;5.62;;;;;;;26.99;30.47;99127.78;4486243;32;20101;-80
2022/05/08 11:12:56;;;;;;;11.77;5.35;;;;;;;26.85;29.71;99124.00;4486308;31;20092;-80
2022/05/08 11:15:23;;;;;;;11.63;5.40;;;;;;;26.92;29.71;99117.87;4483445;31;20096;-77
2022/05/08 11:18:02;;;;;;;11.27;5.50;;;;;;;27.05;30.27;99118.09;4470870;32;20100;-78
2022/05/08 11:20:27;;;;;;;11.02;5.97;;;;;;;27.15;29.96;99124.09;4471641;32;20506;-79
2022/05/08 11:22:56;;;;;;;11.00;5.95;;;;;;;27.09;29.38;99113.19;4485573;32;20135;-80
2022/05/08 11:25:22;;;;;;;11.15;5.75;;;;;;;27.19;29.86;99111.88;4471250;32;20092;-80
2022/05/08 11:27:54;;;;;;;11.77;6.25;;;;;;;27.26;29.57;99101.22;4485751;32;20110;-80
2022/05/08 11:30:27;;;;;;;12.55;6.47;;;;;;;27.35;28.67;99101.97;4471434;32;20100;-79
2022/05/08 11:38:22;;;;;;;10.63;5.55;;;;;;;27.30;29.80;99101.69;4473492;32;20123;-79
2022/05/08 11:40:47;;;;;;;;;;;;;;;27.18;30.28;99095.88;4486482;32;20144;-80
2022/05/08 11:43:35;;;;;;;10.52;5.28;;;;;;;27.31;29.42;99098.78;4472870;32;19990;-80
2022/05/08 11:46:01;;;;;;;12.60;6.53;;;;;;;27.32;30.10;99096.94;4486833;32;20411;-80
2022/05/08 11:48:36;;;;;;;12.63;6.15;;;;;;;27.27;29.90;99100.19;4486529;32;20115;-80
2022/05/08 11:51:02;;;;;;;12.70;6.20;;;;;;;27.03;29.96;99101.22;4487091;32;20123;-80
2022/05/08 11:53:28;;;;;;;11.38;6.05;;;;;;;27.19;29.33;99101.06;4472661;32;20088;-80
2022/05/08 11:55:53;;;;;;;13.25;6.70;;;;;;;27.32;29.11;99099.66;4486954;32;20076;-80
2022/05/08 11:58:31;;;;;;;11.85;6.55;;;;;;;27.11;29.42;99093.03;4486864;32;20104;-80
2022/05/08 12:00:57;;;;;;;11.63;6.47;;;;;;;27.16;29.66;99098.75;4472650;32;20105;-80